createdAt,value
2022-10-07T00:00:53.877Z,26.1
2022-10-07T00:01:56.774Z,26.2
2022-10-07T00:02:59.389Z,26.2
2022-10-07T00:04:01.344Z,26.2
2022-10-07T00:05:03.847Z,26.2
2022-10-07T00:06:06.319Z,26.2
2022-10-07T00:07:08.775Z,26.2
2022-10-07T00:08:11.238Z,26.2
2022-10-07T00:09:13.159Z,26.2
2022-10-07T00:10:15.623Z,26.2
2022-10-07T00:11:18.093Z,26.2
2022-10-07T00:12:20.574Z,26.2
2022-10-07T00:13:23.045Z,26.2
2022-10-07T00:14:24.975Z,26.3
2022-10-07T00:15:27.167Z,26.3
2022-10-07T00:16:29.880Z,26.3
2022-10-07T00:17:31.961Z,26.3
2022-10-07T00:18:34.421Z,26.3
2022-10-07T00:19:36.922Z,26.3
2022-10-07T00:20:39.403Z,26.3
2022-10-07T00:21:41.325Z,26.3
2022-10-07T00:22:43.791Z,26.3
2022-10-07T00:23:45.422Z,26.3
2022-10-07T00:24:47.883Z,26.3
2022-10-07T00:25:50.075Z,26.3
2022-10-07T00:26:52.263Z,26.3
2022-10-07T00:27:54.762Z,26.3
2022-10-07T00:28:57.212Z,26.3
2022-10-07T00:29:59.677Z,26.3
2022-10-07T00:31:02.592Z,26.3
2022-10-07T00:32:05.285Z,26.3
2022-10-07T00:33:07.741Z,26.3
2022-10-07T00:34:09.661Z,26.3
2022-10-07T00:35:12.152Z,26.3
2022-10-07T00:36:16.058Z,26.3
2022-10-07T00:37:18.530Z,26.3
2022-10-07T00:38:21.007Z,26.3
2022-10-07T00:39:23.199Z,26.3
2022-10-07T00:40:25.132Z,26.3
2022-10-07T00:41:27.332Z,26.3
2022-10-07T00:42:29.814Z,26.3
2022-10-07T00:43:32.306Z,26.3
2022-10-07T00:44:34.799Z,26.3
2022-10-07T00:45:37.377Z,26.4
2022-10-07T00:46:39.953Z,26.4
2022-10-07T00:47:43.324Z,26.4
2022-10-07T00:48:46.386Z,26.4
2022-10-07T00:49:48.858Z,26.4
2022-10-07T00:50:51.387Z,26.4
2022-10-07T00:51:53.614Z,26.4
2022-10-07T00:52:55.521Z,26.4
2022-10-07T00:53:57.990Z,26.4
2022-10-07T00:55:00.459Z,26.4
2022-10-07T00:56:02.697Z,26.4
2022-10-07T00:57:04.604Z,26.4
2022-10-07T00:58:06.805Z,26.4
2022-10-07T00:59:08.739Z,26.4
2022-10-07T01:00:11.212Z,26.4
2022-10-07T01:01:13.626Z,26.4
2022-10-07T01:02:16.199Z,26.4
2022-10-07T01:03:18.241Z,26.4
2022-10-07T01:04:20.441Z,26.4
2022-10-07T01:05:22.926Z,26.4
2022-10-07T01:06:25.160Z,26.4
2022-10-07T01:07:27.673Z,26.4
2022-10-07T01:08:30.146Z,26.4
2022-10-07T01:09:32.071Z,26.4
2022-10-07T01:10:34.544Z,26.4
2022-10-07T01:11:36.731Z,26.4
2022-10-07T01:12:39.222Z,26.4
2022-10-07T01:13:41.490Z,26.4
2022-10-07T01:14:43.707Z,26.4
2022-10-07T01:15:46.172Z,26.4
2022-10-07T01:16:49.037Z,26.4
2022-10-07T01:17:51.800Z,26.4
2022-10-07T01:18:53.978Z,26.4
2022-10-07T01:19:56.187Z,26.4
2022-10-07T01:20:58.409Z,26.4
2022-10-07T01:22:00.629Z,26.4
2022-10-07T01:23:03.146Z,26.4
2022-10-07T01:24:05.334Z,26.4
2022-10-07T01:25:07.822Z,26.4
2022-10-07T01:26:10.303Z,26.4
2022-10-07T01:27:12.478Z,26.5
2022-10-07T01:28:14.877Z,26.5
2022-10-07T01:29:17.260Z,26.5
2022-10-07T01:30:19.754Z,26.5
2022-10-07T01:31:22.234Z,26.5
2022-10-07T01:32:24.756Z,26.5
2022-10-07T01:33:27.233Z,26.5
2022-10-07T01:34:28.869Z,26.5
2022-10-07T01:35:31.065Z,26.5
2022-10-07T01:36:33.543Z,26.5
2022-10-07T01:37:36.011Z,26.5
2022-10-07T01:38:38.254Z,26.5
2022-10-07T01:39:40.435Z,26.5
2022-10-07T01:40:42.904Z,26.5
2022-10-07T01:41:45.376Z,26.5
2022-10-07T01:42:47.841Z,26.5
2022-10-07T01:43:50.026Z,26.5
2022-10-07T01:44:51.922Z,26.5
2022-10-07T01:45:54.571Z,26.5
2022-10-07T01:46:57.253Z,26.5
2022-10-07T01:47:59.439Z,26.5
2022-10-07T01:49:01.935Z,26.5
2022-10-07T01:50:04.125Z,26.5
2022-10-07T01:51:06.328Z,26.5
2022-10-07T01:52:08.516Z,26.5
2022-10-07T01:53:11.064Z,26.5
2022-10-07T01:54:13.891Z,26.5
2022-10-07T01:55:15.815Z,26.5
2022-10-07T01:56:18.042Z,26.5
2022-10-07T01:57:20.516Z,26.5
2022-10-07T01:58:22.991Z,26.5
2022-10-07T01:59:25.462Z,26.5
2022-10-07T02:00:27.930Z,26.5
2022-10-07T02:01:30.816Z,26.5
2022-10-07T02:02:33.183Z,26.5
2022-10-07T02:03:35.835Z,26.5
2022-10-07T02:04:38.469Z,26.5
2022-10-07T02:05:40.946Z,26.5
2022-10-07T02:06:43.129Z,26.5
2022-10-07T02:07:46.408Z,26.5
2022-10-07T02:08:49.538Z,26.5
2022-10-07T02:09:52.086Z,26.5
2022-10-07T02:10:54.003Z,26.5
2022-10-07T02:11:56.476Z,26.5
2022-10-07T02:12:58.947Z,26.5
2022-10-07T02:14:01.455Z,26.5
2022-10-07T02:15:03.374Z,26.5
2022-10-07T02:16:07.807Z,26.5
2022-10-07T02:17:12.079Z,26.5
2022-10-07T02:18:14.286Z,26.5
2022-10-07T02:19:16.762Z,26.5
2022-10-07T02:20:19.244Z,26.5
2022-10-07T02:21:21.421Z,26.5
2022-10-07T02:22:23.888Z,26.5
2022-10-07T02:23:26.360Z,26.5
2022-10-07T02:24:28.882Z,26.5
2022-10-07T02:25:31.395Z,26.5
2022-10-07T02:26:33.869Z,26.5
2022-10-07T02:27:36.063Z,26.5
2022-10-07T02:28:38.672Z,26.5
2022-10-07T02:29:41.353Z,26.5
2022-10-07T02:30:43.697Z,26.5
2022-10-07T02:31:46.325Z,26.5
2022-10-07T02:32:48.538Z,26.5
2022-10-07T02:33:51.028Z,26.5
2022-10-07T02:34:52.950Z,26.5
2022-10-07T02:35:55.419Z,26.5
2022-10-07T02:36:57.323Z,26.5
2022-10-07T02:37:59.528Z,26.5
2022-10-07T02:39:01.469Z,26.5
2022-10-07T02:41:09.474Z,26.5
2022-10-07T02:42:11.978Z,26.5
2022-10-07T02:43:14.179Z,26.5
2022-10-07T02:44:16.434Z,26.5
2022-10-07T02:46:24.686Z,26.5
2022-10-07T02:47:27.202Z,26.5
2022-10-07T02:48:29.418Z,26.5
2022-10-07T02:49:31.925Z,26.5
2022-10-07T02:50:34.121Z,26.5
2022-10-07T02:51:36.586Z,26.5
2022-10-07T02:52:39.063Z,26.5
2022-10-07T02:53:41.241Z,26.5
2022-10-07T02:54:43.434Z,26.5
2022-10-07T02:55:45.632Z,26.5
2022-10-07T02:56:48.139Z,26.5
2022-10-07T02:57:50.635Z,26.5
2022-10-07T02:58:53.103Z,26.5
2022-10-07T02:59:55.572Z,26.5
2022-10-07T03:00:58.042Z,26.5
2022-10-07T03:02:00.795Z,26.5
2022-10-07T03:03:03.427Z,26.5
2022-10-07T03:04:05.894Z,26.5
2022-10-07T03:05:08.312Z,26.5
2022-10-07T03:06:10.780Z,26.5
2022-10-07T03:07:12.982Z,26.4
2022-10-07T03:08:15.870Z,26.4
2022-10-07T03:09:18.350Z,26.4
2022-10-07T03:10:20.818Z,26.4
2022-10-07T03:11:22.761Z,26.4
2022-10-07T03:12:24.979Z,26.3
2022-10-07T03:13:27.477Z,26.3
2022-10-07T03:14:29.679Z,26.3
2022-10-07T03:15:31.894Z,26.3
2022-10-07T03:16:34.824Z,26.3
2022-10-07T03:17:37.252Z,26.3
2022-10-07T03:18:39.717Z,26.3
2022-10-07T03:19:41.933Z,26.2
2022-10-07T03:20:44.134Z,26.2
2022-10-07T03:21:46.335Z,26.2
2022-10-07T03:22:48.813Z,26.2
2022-10-07T03:23:51.287Z,26.2
2022-10-07T03:24:53.762Z,26.2
2022-10-07T03:25:55.935Z,26.2
2022-10-07T03:26:58.423Z,26.1
2022-10-07T03:28:00.847Z,26.1
2022-10-07T03:29:03.524Z,26.1
2022-10-07T03:30:05.989Z,26.1
2022-10-07T03:31:08.463Z,26.1
2022-10-07T03:32:10.867Z,26.1
2022-10-07T03:33:13.349Z,26.1
2022-10-07T03:34:15.882Z,26.1
2022-10-07T03:35:18.375Z,26.1
2022-10-07T03:36:20.866Z,26.1
2022-10-07T03:37:23.369Z,26.1
2022-10-07T03:38:25.578Z,26.1
2022-10-07T03:39:28.048Z,26
2022-10-07T03:40:30.241Z,26
2022-10-07T03:41:32.429Z,26
2022-10-07T03:42:35.211Z,26
2022-10-07T03:43:37.811Z,26
2022-10-07T03:44:40.405Z,26
2022-10-07T03:45:42.917Z,26
2022-10-07T03:46:45.594Z,26
2022-10-07T03:47:48.257Z,26
2022-10-07T03:48:50.769Z,26
2022-10-07T03:49:52.996Z,26
2022-10-07T03:50:55.494Z,26
2022-10-07T03:51:57.967Z,26
2022-10-07T03:52:59.865Z,26
2022-10-07T03:54:02.060Z,26
2022-10-07T03:55:04.530Z,26
2022-10-07T03:56:06.998Z,26
2022-10-07T03:57:09.183Z,26
2022-10-07T03:58:11.678Z,26
2022-10-07T03:59:13.891Z,26
2022-10-07T04:00:16.209Z,26
2022-10-07T04:01:18.943Z,26
2022-10-07T04:02:21.288Z,26
2022-10-07T04:03:23.504Z,25.9
2022-10-07T04:04:26.239Z,26
2022-10-07T04:05:28.722Z,25.9
2022-10-07T04:06:31.216Z,25.9
2022-10-07T04:07:33.703Z,25.9
2022-10-07T04:08:36.178Z,25.9
2022-10-07T04:09:38.656Z,25.9
2022-10-07T04:10:41.131Z,25.9
2022-10-07T04:11:43.600Z,25.9
2022-10-07T04:12:45.768Z,25.9
2022-10-07T04:13:47.966Z,25.9
2022-10-07T04:14:50.236Z,25.9
2022-10-07T04:15:52.692Z,25.9
2022-10-07T04:16:54.515Z,25.9
2022-10-07T04:17:56.983Z,25.9
2022-10-07T04:18:59.192Z,25.9
2022-10-07T04:20:01.656Z,25.9
2022-10-07T04:21:03.553Z,25.9
2022-10-07T04:23:10.736Z,25.9
2022-10-07T04:24:13.203Z,25.9
2022-10-07T04:25:15.679Z,25.9
2022-10-07T04:26:17.978Z,25.9
2022-10-07T04:28:25.687Z,25.9
2022-10-07T04:29:28.225Z,25.9
2022-10-07T04:30:30.612Z,25.9
2022-10-07T04:31:33.443Z,25.9
2022-10-07T04:32:35.686Z,25.9
2022-10-07T04:33:38.164Z,25.9
2022-10-07T04:34:40.660Z,25.9
2022-10-07T04:35:42.283Z,25.9
2022-10-07T04:36:44.758Z,25.9
2022-10-07T04:37:48.529Z,25.9
2022-10-07T04:38:50.522Z,25.9
2022-10-07T04:40:57.702Z,25.9
2022-10-07T04:41:59.615Z,25.9
2022-10-07T04:43:02.089Z,25.9
2022-10-07T04:44:04.258Z,25.9
2022-10-07T04:45:06.459Z,25.8
2022-10-07T04:46:08.662Z,25.8
2022-10-07T04:47:11.246Z,25.8
2022-10-07T04:48:13.682Z,25.8
2022-10-07T04:49:15.883Z,25.8
2022-10-07T04:50:18.358Z,25.8
2022-10-07T04:51:20.284Z,25.8
2022-10-07T04:52:22.753Z,25.8
2022-10-07T04:53:25.249Z,25.8
2022-10-07T04:54:27.717Z,25.8
2022-10-07T04:55:30.193Z,25.8
2022-10-07T04:56:31.844Z,25.8
2022-10-07T04:57:34.338Z,25.8
2022-10-07T04:58:36.282Z,25.8
2022-10-07T05:00:43.344Z,25.8
2022-10-07T05:01:45.944Z,25.8
2022-10-07T05:02:48.592Z,25.8
2022-10-07T05:03:51.056Z,25.8
2022-10-07T05:04:52.979Z,25.8
2022-10-07T05:05:55.471Z,25.8
2022-10-07T05:06:57.953Z,25.8
2022-10-07T05:08:00.151Z,25.8
2022-10-07T05:09:02.645Z,25.8
2022-10-07T05:10:05.121Z,25.8
2022-10-07T05:11:07.600Z,25.8
2022-10-07T05:12:09.792Z,25.8
2022-10-07T05:13:12.271Z,25.8
2022-10-07T05:14:14.742Z,25.8
2022-10-07T05:15:17.219Z,25.8
2022-10-07T05:16:19.588Z,25.8
2022-10-07T05:17:22.318Z,25.8
2022-10-07T05:18:24.941Z,25.8
2022-10-07T05:19:27.144Z,25.8
2022-10-07T05:20:29.318Z,25.8
2022-10-07T05:21:31.527Z,25.8
2022-10-07T05:22:33.732Z,25.8
2022-10-07T05:23:36.211Z,25.8
2022-10-07T05:24:38.427Z,25.8
2022-10-07T05:25:40.627Z,25.8
2022-10-07T05:26:42.829Z,25.8
2022-10-07T05:27:45.849Z,25.8
2022-10-07T05:28:49.678Z,25.8
2022-10-07T05:29:51.884Z,25.8
2022-10-07T05:30:54.081Z,25.8
2022-10-07T05:33:01.873Z,25.8
2022-10-07T05:34:04.390Z,25.8
2022-10-07T05:35:06.026Z,25.8
2022-10-07T05:36:08.514Z,25.8
2022-10-07T05:37:10.736Z,25.8
2022-10-07T05:38:12.651Z,25.8
2022-10-07T05:39:14.847Z,25.8
2022-10-07T05:40:17.339Z,25.8
2022-10-07T05:41:20.059Z,25.8
2022-10-07T05:42:21.963Z,25.8
2022-10-07T05:43:24.184Z,25.8
2022-10-07T05:44:26.150Z,25.8
2022-10-07T05:45:28.494Z,25.8
2022-10-07T05:46:30.958Z,25.8
2022-10-07T05:47:32.895Z,25.8
2022-10-07T05:49:40.393Z,25.8
2022-10-07T05:50:42.637Z,25.8
2022-10-07T05:51:44.891Z,25.8
2022-10-07T05:52:47.090Z,25.8
2022-10-07T05:53:49.301Z,25.8
2022-10-07T05:54:51.228Z,25.8
2022-10-07T05:55:53.462Z,25.8
2022-10-07T05:56:55.671Z,25.8
2022-10-07T05:57:57.867Z,25.8
2022-10-07T05:58:59.791Z,25.8
2022-10-07T06:00:01.704Z,25.8
2022-10-07T06:02:08.743Z,25.8
2022-10-07T06:03:12.207Z,25.8
2022-10-07T06:04:14.682Z,25.8
2022-10-07T06:05:17.178Z,25.8
2022-10-07T06:06:19.684Z,25.8
2022-10-07T06:08:26.310Z,25.8
2022-10-07T06:09:28.798Z,25.7
2022-10-07T06:10:31.282Z,25.8
2022-10-07T06:11:33.525Z,25.7
2022-10-07T06:12:35.717Z,25.7
2022-10-07T06:13:37.886Z,25.7
2022-10-07T06:14:40.092Z,25.7
2022-10-07T06:15:42.294Z,25.8
2022-10-07T06:16:44.539Z,25.7
2022-10-07T06:17:48.890Z,25.7
2022-10-07T06:18:51.792Z,25.7
2022-10-07T06:19:54.030Z,25.7
2022-10-07T06:20:55.675Z,25.8
2022-10-07T06:21:57.922Z,25.8
2022-10-07T06:23:00.390Z,25.7
2022-10-07T06:24:02.866Z,25.7
2022-10-07T06:25:05.087Z,25.7
2022-10-07T06:26:06.998Z,25.7
2022-10-07T06:27:09.498Z,25.7
2022-10-07T06:28:12.243Z,25.7
2022-10-07T06:29:14.656Z,25.7
2022-10-07T06:30:17.134Z,25.7
2022-10-07T06:31:19.610Z,25.7
2022-10-07T06:32:22.031Z,25.7
2022-10-07T06:33:24.235Z,25.7
2022-10-07T06:34:26.736Z,25.7
2022-10-07T06:35:29.214Z,25.7
2022-10-07T06:36:31.449Z,25.7
2022-10-07T06:37:33.987Z,25.7
2022-10-07T06:38:36.468Z,25.7
2022-10-07T06:39:38.363Z,25.7
2022-10-07T06:40:40.290Z,25.7
2022-10-07T06:41:42.543Z,25.7
2022-10-07T06:42:44.755Z,25.7
2022-10-07T06:43:46.982Z,25.7
2022-10-07T06:44:49.177Z,25.7
2022-10-07T06:45:51.543Z,25.7
2022-10-07T06:46:53.601Z,25.7
2022-10-07T06:47:55.807Z,25.7
2022-10-07T06:48:57.973Z,25.7
2022-10-07T06:50:00.215Z,25.7
2022-10-07T06:51:02.674Z,25.7
2022-10-07T06:52:04.647Z,25.7
2022-10-07T06:53:06.880Z,25.7
2022-10-07T06:54:09.399Z,25.7
2022-10-07T06:55:11.869Z,25.7
2022-10-07T06:56:13.815Z,25.7
2022-10-07T06:58:20.736Z,25.7
2022-10-07T06:59:23.334Z,25.7
2022-10-07T07:00:25.935Z,25.7
2022-10-07T07:01:28.534Z,25.7
2022-10-07T07:02:31.262Z,25.7
2022-10-07T07:03:33.308Z,25.7
2022-10-07T07:04:35.785Z,25.7
2022-10-07T07:06:42.830Z,25.7
2022-10-07T07:07:46.258Z,25.7
2022-10-07T07:08:50.360Z,25.7
2022-10-07T07:09:52.571Z,25.7
2022-10-07T07:10:54.766Z,25.7
2022-10-07T07:11:57.395Z,25.7
2022-10-07T07:12:59.226Z,25.7
2022-10-07T07:14:01.843Z,25.7
2022-10-07T07:15:04.077Z,25.7
2022-10-07T07:16:06.604Z,25.7
2022-10-07T07:17:08.940Z,25.7
2022-10-07T07:18:11.593Z,25.7
2022-10-07T07:19:13.796Z,25.7
2022-10-07T07:20:15.729Z,25.7
2022-10-07T07:21:18.239Z,25.7
2022-10-07T07:22:20.468Z,25.7
2022-10-07T07:23:23.105Z,25.7
2022-10-07T07:24:25.342Z,25.7
2022-10-07T07:25:27.519Z,25.7
2022-10-07T07:26:30.014Z,25.7
2022-10-07T07:27:32.707Z,25.7
2022-10-07T07:28:35.359Z,25.7
2022-10-07T07:29:37.780Z,25.7
2022-10-07T07:30:40.205Z,25.7
2022-10-07T07:31:42.644Z,25.7
2022-10-07T07:32:45.139Z,25.7
2022-10-07T07:33:47.631Z,25.7
2022-10-07T07:34:50.284Z,25.7
2022-10-07T07:35:52.812Z,25.7
2022-10-07T07:36:55.289Z,25.7
2022-10-07T07:37:57.584Z,25.7
2022-10-07T07:38:59.508Z,25.7
2022-10-07T07:40:02.071Z,25.7
2022-10-07T07:41:03.989Z,25.7
2022-10-07T07:42:06.186Z,25.7
2022-10-07T07:43:08.098Z,25.7
2022-10-07T07:44:10.010Z,25.7
2022-10-07T07:45:12.253Z,25.7
2022-10-07T07:46:14.645Z,25.7
2022-10-07T07:47:16.641Z,25.7
2022-10-07T07:48:19.194Z,25.7
2022-10-07T07:49:21.693Z,25.7
2022-10-07T07:50:23.942Z,25.7
2022-10-07T07:51:26.087Z,25.7
2022-10-07T07:52:28.285Z,25.7
2022-10-07T07:53:30.502Z,25.7
2022-10-07T07:54:32.824Z,25.7
2022-10-07T07:55:35.052Z,25.7
2022-10-07T07:56:37.543Z,25.7
2022-10-07T07:57:39.467Z,25.7
2022-10-07T07:58:41.674Z,25.7
2022-10-07T07:59:43.895Z,25.7
2022-10-07T08:00:46.124Z,25.7
2022-10-07T08:01:47.757Z,25.7
2022-10-07T08:02:49.840Z,25.7
2022-10-07T08:03:52.194Z,25.7
2022-10-07T08:04:54.200Z,25.7
2022-10-07T08:05:56.410Z,25.7
2022-10-07T08:06:58.341Z,25.6
2022-10-07T08:08:00.546Z,25.6
2022-10-07T08:09:03.049Z,25.7
2022-10-07T08:10:05.613Z,25.7
2022-10-07T08:11:08.176Z,25.7
2022-10-07T08:12:10.671Z,25.6
2022-10-07T08:13:12.608Z,25.6
2022-10-07T08:14:15.083Z,25.6
2022-10-07T08:15:17.572Z,25.6
2022-10-07T08:16:20.078Z,25.7
2022-10-07T08:17:22.313Z,25.6
2022-10-07T08:18:23.970Z,25.6
2022-10-07T08:19:25.909Z,25.7
2022-10-07T08:20:28.100Z,25.7
2022-10-07T08:21:30.578Z,25.6
2022-10-07T08:22:33.102Z,25.6
2022-10-07T08:23:34.476Z,25.7
2022-10-07T08:24:36.999Z,25.7
2022-10-07T08:25:39.235Z,25.7
2022-10-07T08:26:41.474Z,25.7
2022-10-07T08:27:45.057Z,25.7
2022-10-07T08:28:48.451Z,25.7
2022-10-07T08:29:50.927Z,25.7
2022-10-07T08:30:53.353Z,25.7
2022-10-07T08:31:55.802Z,25.7
2022-10-07T08:34:03.298Z,25.7
2022-10-07T08:35:05.503Z,25.7
2022-10-07T08:36:07.412Z,25.7
2022-10-07T08:37:09.530Z,25.7
2022-10-07T08:39:17.038Z,25.7
2022-10-07T08:40:19.005Z,25.7
2022-10-07T08:41:21.274Z,25.7
2022-10-07T08:42:23.946Z,25.7
2022-10-07T08:43:26.184Z,25.7
2022-10-07T08:44:28.112Z,25.7
2022-10-07T08:45:30.607Z,25.7
2022-10-07T08:46:32.715Z,25.7
2022-10-07T08:47:35.407Z,25.7
2022-10-07T08:48:37.348Z,25.7
2022-10-07T08:49:39.293Z,25.7
2022-10-07T08:50:41.497Z,25.7
2022-10-07T08:51:43.199Z,25.7
2022-10-07T08:52:45.372Z,25.7
2022-10-07T08:53:47.883Z,25.7
2022-10-07T08:54:50.380Z,25.7
2022-10-07T08:55:52.872Z,25.7
2022-10-07T08:56:54.854Z,25.7
2022-10-07T08:57:57.364Z,25.7
2022-10-07T08:58:59.830Z,25.7
2022-10-07T09:00:02.040Z,25.7
2022-10-07T09:01:04.089Z,25.7
2022-10-07T09:02:06.415Z,25.7
2022-10-07T09:03:08.348Z,25.7
2022-10-07T09:04:10.572Z,25.7
2022-10-07T09:05:13.132Z,25.7
2022-10-07T09:06:15.352Z,25.7
2022-10-07T09:07:17.559Z,25.7
2022-10-07T09:08:19.505Z,25.7
2022-10-07T09:09:21.437Z,25.7
2022-10-07T09:10:23.622Z,25.7
2022-10-07T09:11:25.869Z,25.7
2022-10-07T09:12:28.383Z,25.7
2022-10-07T09:13:30.898Z,25.7
2022-10-07T09:14:33.087Z,25.7
2022-10-07T09:15:35.451Z,25.7
2022-10-07T09:16:37.609Z,25.7
2022-10-07T09:17:39.291Z,25.7
2022-10-07T09:18:41.854Z,25.7
2022-10-07T09:19:43.810Z,25.7
2022-10-07T09:20:46.011Z,25.7
2022-10-07T09:21:48.509Z,25.7
2022-10-07T09:22:50.708Z,25.7
2022-10-07T09:23:53.186Z,25.7
2022-10-07T09:24:57.099Z,25.7
2022-10-07T09:25:59.274Z,25.7
2022-10-07T09:27:01.789Z,25.7
2022-10-07T09:28:04.425Z,25.7
2022-10-07T09:29:06.700Z,25.7
2022-10-07T09:30:08.818Z,25.7
2022-10-07T09:31:11.333Z,25.7
2022-10-07T09:32:13.796Z,25.7
2022-10-07T09:33:15.879Z,25.7
2022-10-07T09:34:18.387Z,25.7
2022-10-07T09:35:20.592Z,25.7
2022-10-07T09:36:23.080Z,25.7
2022-10-07T09:37:25.575Z,25.7
2022-10-07T09:38:27.818Z,25.7
2022-10-07T09:39:30.387Z,25.7
2022-10-07T09:40:32.883Z,25.7
2022-10-07T09:41:35.073Z,25.7
2022-10-07T09:42:37.293Z,25.7
2022-10-07T09:43:39.820Z,25.7
2022-10-07T09:44:42.396Z,25.7
2022-10-07T09:45:44.866Z,25.7
2022-10-07T09:46:47.508Z,25.7
2022-10-07T09:47:50.182Z,25.7
2022-10-07T09:48:52.657Z,25.7
2022-10-07T09:49:55.159Z,25.7
2022-10-07T09:50:57.654Z,25.7
2022-10-07T09:52:00.126Z,25.7
2022-10-07T09:53:02.059Z,25.7
2022-10-07T09:54:04.256Z,25.7
2022-10-07T09:55:06.738Z,25.7
2022-10-07T09:56:09.226Z,25.7
2022-10-07T09:58:19.231Z,25.7
2022-10-07T09:59:21.744Z,25.7
2022-10-07T10:00:24.291Z,25.7
2022-10-07T10:01:26.514Z,25.7
2022-10-07T10:02:29.116Z,25.7
2022-10-07T10:03:32.472Z,25.7
2022-10-07T10:04:35.540Z,25.7
2022-10-07T10:05:38.044Z,25.7
2022-10-07T10:06:40.538Z,25.7
2022-10-07T10:07:41.908Z,25.7
2022-10-07T10:08:45.162Z,25.7
2022-10-07T10:09:47.674Z,25.7
2022-10-07T10:10:50.163Z,25.7
2022-10-07T10:11:52.515Z,25.7
2022-10-07T10:12:55.073Z,25.7
2022-10-07T10:13:57.412Z,25.7
2022-10-07T10:14:59.952Z,25.7
2022-10-07T10:16:02.750Z,25.6
2022-10-07T10:17:05.297Z,25.7
2022-10-07T10:18:07.860Z,25.7
2022-10-07T10:19:10.107Z,25.7
2022-10-07T10:20:12.640Z,25.7
2022-10-07T10:21:14.901Z,25.7
2022-10-07T10:22:17.366Z,25.7
2022-10-07T10:23:19.848Z,25.7
2022-10-07T10:24:22.324Z,25.7
2022-10-07T10:25:24.526Z,25.7
2022-10-07T10:27:32.085Z,25.7
2022-10-07T10:28:34.535Z,25.7
2022-10-07T10:29:37.043Z,25.7
2022-10-07T10:30:39.575Z,25.7
2022-10-07T10:31:42.370Z,25.7
2022-10-07T10:32:46.016Z,25.7
2022-10-07T10:33:49.376Z,25.7
2022-10-07T10:34:51.297Z,25.7
2022-10-07T10:35:53.774Z,25.7
2022-10-07T10:36:56.130Z,25.7
2022-10-07T10:37:58.602Z,25.7
2022-10-07T10:39:00.804Z,25.7
2022-10-07T10:40:03.023Z,25.7
2022-10-07T10:41:05.229Z,25.7
2022-10-07T10:42:07.440Z,25.7
2022-10-07T10:43:09.624Z,25.7
2022-10-07T10:44:12.112Z,25.7
2022-10-07T10:45:14.603Z,25.7
2022-10-07T10:46:17.392Z,25.7
2022-10-07T10:47:20.126Z,25.7
2022-10-07T10:48:22.356Z,25.7
2022-10-07T10:49:24.830Z,25.6
2022-10-07T10:50:27.320Z,25.6
2022-10-07T10:51:29.784Z,25.6
2022-10-07T10:52:32.302Z,25.6
2022-10-07T10:53:34.798Z,25.6
2022-10-07T10:54:36.996Z,25.6
2022-10-07T10:55:39.487Z,25.6
2022-10-07T10:56:41.662Z,25.6
2022-10-07T10:57:43.327Z,25.6
2022-10-07T10:58:45.503Z,25.6
2022-10-07T10:59:47.743Z,25.6
2022-10-07T11:00:50.296Z,25.6
2022-10-07T11:01:53.073Z,25.6
2022-10-07T11:02:55.739Z,25.6
2022-10-07T11:03:57.766Z,25.6
2022-10-07T11:04:59.714Z,25.6
2022-10-07T11:06:02.235Z,25.6
2022-10-07T11:07:04.744Z,25.6
2022-10-07T11:08:06.694Z,25.6
2022-10-07T11:09:09.185Z,25.6
2022-10-07T11:10:11.653Z,25.6
2022-10-07T11:11:13.840Z,25.6
2022-10-07T11:12:16.231Z,25.6
2022-10-07T11:13:18.502Z,25.6
2022-10-07T11:14:20.286Z,25.6
2022-10-07T11:15:22.193Z,25.6
2022-10-07T11:16:24.550Z,25.6
2022-10-07T11:17:26.697Z,25.6
2022-10-07T11:18:29.250Z,25.6
2022-10-07T11:19:31.474Z,25.6
2022-10-07T11:20:34.076Z,25.6
2022-10-07T11:21:36.276Z,25.6
2022-10-07T11:22:38.765Z,25.6
2022-10-07T11:23:41.000Z,25.6
2022-10-07T11:24:42.911Z,25.6
2022-10-07T11:25:45.108Z,25.6
2022-10-07T11:26:47.593Z,25.6
2022-10-07T11:27:49.807Z,25.6
2022-10-07T11:28:51.735Z,25.6
2022-10-07T11:29:54.215Z,25.6
2022-10-07T11:30:56.856Z,25.6
2022-10-07T11:31:59.224Z,25.6
2022-10-07T11:33:01.718Z,25.6
2022-10-07T11:34:04.247Z,25.6
2022-10-07T11:35:06.719Z,25.6
2022-10-07T11:36:08.915Z,25.6
2022-10-07T11:37:11.121Z,25.6
2022-10-07T11:38:13.350Z,25.6
2022-10-07T11:39:15.609Z,25.6
2022-10-07T11:40:18.137Z,25.6
2022-10-07T11:41:20.370Z,25.6
2022-10-07T11:42:22.807Z,25.6
2022-10-07T11:43:24.719Z,25.6
2022-10-07T11:44:27.200Z,25.6
2022-10-07T11:45:29.676Z,25.6
2022-10-07T11:46:32.070Z,25.6
2022-10-07T11:47:34.728Z,25.6
2022-10-07T11:48:37.237Z,25.6
2022-10-07T11:49:39.517Z,25.6
2022-10-07T11:50:41.730Z,25.6
2022-10-07T11:51:43.915Z,25.6
2022-10-07T11:52:46.925Z,25.6
2022-10-07T11:53:50.134Z,25.7
2022-10-07T11:54:52.364Z,25.6
2022-10-07T11:55:56.084Z,25.7
2022-10-07T11:56:58.022Z,25.7
2022-10-07T11:58:00.226Z,25.6
2022-10-07T11:59:02.713Z,25.6
2022-10-07T12:00:04.647Z,25.7
2022-10-07T12:01:06.971Z,25.7
2022-10-07T12:02:09.435Z,25.7
2022-10-07T12:03:16.136Z,25.6
2022-10-07T12:04:17.913Z,25.6
2022-10-07T12:05:20.172Z,25.6
2022-10-07T12:06:22.664Z,25.6
2022-10-07T12:07:25.160Z,25.6
2022-10-07T12:08:27.372Z,25.6
2022-10-07T12:09:29.859Z,25.6
2022-10-07T12:10:32.230Z,25.7
2022-10-07T12:11:34.711Z,25.6
2022-10-07T12:12:36.906Z,25.6
2022-10-07T12:13:39.409Z,25.7
2022-10-07T12:14:41.690Z,25.7
2022-10-07T12:15:44.274Z,25.7
2022-10-07T12:16:46.608Z,25.7
2022-10-07T12:17:48.515Z,25.7
2022-10-07T12:18:51.014Z,25.7
2022-10-07T12:19:53.539Z,25.7
2022-10-07T12:20:56.104Z,25.7
2022-10-07T12:21:58.593Z,25.7
2022-10-07T12:23:01.005Z,25.7
2022-10-07T12:24:03.208Z,25.7
2022-10-07T12:26:10.698Z,25.7
2022-10-07T12:27:13.170Z,25.7
2022-10-07T12:28:15.579Z,25.7
2022-10-07T12:29:18.030Z,25.6
2022-10-07T12:30:20.238Z,25.7
2022-10-07T12:31:22.922Z,25.7
2022-10-07T12:32:25.768Z,25.7
2022-10-07T12:33:27.694Z,25.7
2022-10-07T12:34:30.194Z,25.6
2022-10-07T12:35:32.178Z,25.6
2022-10-07T12:36:34.425Z,25.7
2022-10-07T12:37:36.397Z,25.6
2022-10-07T12:38:38.907Z,25.7
2022-10-07T12:39:41.123Z,25.7
2022-10-07T12:40:43.601Z,25.7
2022-10-07T12:41:45.587Z,25.7
2022-10-07T12:42:48.769Z,25.7
2022-10-07T12:43:51.244Z,25.7
2022-10-07T12:44:53.770Z,25.7
2022-10-07T12:45:55.966Z,25.7
2022-10-07T12:46:58.672Z,25.7
2022-10-07T12:48:01.184Z,25.7
2022-10-07T12:49:03.408Z,25.7
2022-10-07T12:50:05.654Z,25.6
2022-10-07T12:51:07.630Z,25.6
2022-10-07T12:52:09.924Z,25.6
2022-10-07T12:53:12.402Z,25.6
2022-10-07T12:54:14.584Z,25.6
2022-10-07T12:55:16.817Z,25.6
2022-10-07T12:56:18.760Z,25.6
2022-10-07T12:57:21.282Z,25.6
2022-10-07T12:58:23.756Z,25.6
2022-10-07T12:59:25.686Z,25.6
2022-10-07T13:00:27.889Z,25.6
2022-10-07T13:01:30.517Z,25.6
2022-10-07T13:02:33.053Z,25.6
2022-10-07T13:03:34.700Z,25.6
2022-10-07T13:04:37.189Z,25.6
2022-10-07T13:05:39.805Z,25.6
2022-10-07T13:06:42.048Z,25.6
2022-10-07T13:07:44.611Z,25.6
2022-10-07T13:08:46.821Z,25.6
2022-10-07T13:09:49.342Z,25.6
2022-10-07T13:10:51.570Z,25.6
2022-10-07T13:11:53.513Z,25.6
2022-10-07T13:12:56.013Z,25.6
2022-10-07T13:13:58.494Z,25.6
2022-10-07T13:15:00.991Z,25.6
2022-10-07T13:16:03.649Z,25.6
2022-10-07T13:17:06.346Z,25.6
2022-10-07T13:19:13.824Z,25.6
2022-10-07T13:20:15.763Z,25.6
2022-10-07T13:21:18.283Z,25.6
2022-10-07T13:22:19.736Z,25.6
2022-10-07T13:24:26.978Z,25.6
2022-10-07T13:25:29.482Z,25.6
2022-10-07T13:26:31.962Z,25.6
2022-10-07T13:27:33.906Z,25.6
2022-10-07T13:28:36.680Z,25.6
2022-10-07T13:29:39.014Z,25.6
2022-10-07T13:30:40.667Z,25.7
2022-10-07T13:31:42.545Z,25.6
2022-10-07T13:32:45.838Z,25.6
2022-10-07T13:33:49.258Z,25.6
2022-10-07T13:34:51.737Z,25.6
2022-10-07T13:35:54.224Z,25.6
2022-10-07T13:36:56.483Z,25.7
2022-10-07T13:37:58.148Z,25.7
2022-10-07T13:39:00.391Z,25.7
2022-10-07T13:40:02.626Z,25.7
2022-10-07T13:41:05.103Z,25.7
2022-10-07T13:42:07.033Z,25.7
2022-10-07T13:43:09.230Z,25.6
2022-10-07T13:44:11.456Z,25.7
2022-10-07T13:45:13.936Z,25.7
2022-10-07T13:46:16.103Z,25.6
2022-10-07T13:47:18.643Z,25.6
2022-10-07T13:48:20.837Z,25.6
2022-10-07T13:49:23.334Z,25.6
2022-10-07T13:50:25.537Z,25.6
2022-10-07T13:51:28.012Z,25.6
2022-10-07T13:52:30.524Z,25.6
2022-10-07T13:53:32.681Z,25.6
2022-10-07T13:54:35.294Z,25.6
2022-10-07T13:55:37.771Z,25.6
2022-10-07T13:56:39.698Z,25.6
2022-10-07T13:57:41.912Z,25.6
2022-10-07T13:58:43.845Z,25.6
2022-10-07T13:59:45.802Z,25.6
2022-10-07T14:00:47.816Z,25.6
2022-10-07T14:01:50.402Z,25.6
2022-10-07T14:02:53.644Z,25.6
2022-10-07T14:03:55.672Z,25.6
2022-10-07T14:04:58.160Z,25.6
2022-10-07T14:06:00.102Z,25.6
2022-10-07T14:07:02.068Z,25.6
2022-10-07T14:08:04.626Z,25.6
2022-10-07T14:09:07.150Z,25.6
2022-10-07T14:10:09.821Z,25.6
2022-10-07T14:11:12.352Z,25.6
2022-10-07T14:12:14.261Z,25.6
2022-10-07T14:13:16.507Z,25.6